sensor_id;sensor_type;location;lat;lon;timestamp;pressure;altitude;pressure_sealevel;temperature;humidity
6389;BME280;3227;42.654;23.360;2024-02-23T00:00:21;94159.38;;;8.30;72.57
6389;BME280;3227;42.654;23.360;2024-02-23T00:02:49;94158.56;;;8.33;72.87
6389;BME280;3227;42.654;23.360;2024-02-23T00:05:16;94163.69;;;8.36;73.53
6389;BME280;3227;42.654;23.360;2024-02-23T00:07:44;94153.41;;;8.28;73.93
6389;BME280;3227;42.654;23.360;2024-02-23T00:10:11;94141.50;;;8.21;73.85
6389;BME280;3227;42.654;23.360;2024-02-23T00:12:37;94150.81;;;8.13;73.71
6389;BME280;3227;42.654;23.360;2024-02-23T00:15:05;94160.97;;;7.96;74.01
6389;BME280;3227;42.654;23.360;2024-02-23T00:17:32;94166.84;;;7.83;73.99
6389;BME280;3227;42.654;23.360;2024-02-23T00:20:00;94103.03;;;7.62;74.00
6389;BME280;3227;42.654;23.360;2024-02-23T00:22:27;94166.09;;;8.04;73.94
6389;BME280;3227;42.654;23.360;2024-02-23T00:24:54;94155.03;;;8.00;73.83
6389;BME280;3227;42.654;23.360;2024-02-23T00:27:20;94158.47;;;8.06;73.36
6389;BME280;3227;42.654;23.360;2024-02-23T00:29:47;94164.41;;;8.06;72.90
6389;BME280;3227;42.654;23.360;2024-02-23T00:32:14;94160.16;;;8.08;72.90
6389;BME280;3227;42.654;23.360;2024-02-23T00:34:41;94152.50;;;8.08;72.96
6389;BME280;3227;42.654;23.360;2024-02-23T00:37:09;94132.94;;;8.09;73.16
6389;BME280;3227;42.654;23.360;2024-02-23T00:39:35;94150.81;;;8.16;72.74
6389;BME280;3227;42.654;23.360;2024-02-23T00:42:03;94149.16;;;8.23;72.88
6389;BME280;3227;42.654;23.360;2024-02-23T00:44:30;94147.44;;;8.14;73.04
6389;BME280;3227;42.654;23.360;2024-02-23T00:46:56;94134.59;;;7.93;72.36
6389;BME280;3227;42.654;23.360;2024-02-23T00:49:26;94126.78;;;7.59;73.24
6389;BME280;3227;42.654;23.360;2024-02-23T00:51:53;94131.84;;;7.47;74.59
6389;BME280;3227;42.654;23.360;2024-02-23T00:54:22;94113.16;;;7.45;75.20
6389;BME280;3227;42.654;23.360;2024-02-23T00:56:48;94084.28;;;7.49;74.33
6389;BME280;3227;42.654;23.360;2024-02-23T00:59:15;94131.16;;;7.86;73.47
6389;BME280;3227;42.654;23.360;2024-02-23T01:01:42;94125.25;;;7.90;73.63
6389;BME280;3227;42.654;23.360;2024-02-23T01:04:09;94121.81;;;7.91;73.39
6389;BME280;3227;42.654;23.360;2024-02-23T01:06:35;94109.09;;;8.00;73.71
6389;BME280;3227;42.654;23.360;2024-02-23T01:09:02;94124.41;;;7.99;72.79
6389;BME280;3227;42.654;23.360;2024-02-23T01:11:31;94128.66;;;8.00;73.24
6389;BME280;3227;42.654;23.360;2024-02-23T01:13:58;94130.34;;;7.92;73.64
6389;BME280;3227;42.654;23.360;2024-02-23T01:16:25;94120.94;;;7.83;73.68
6389;BME280;3227;42.654;23.360;2024-02-23T01:18:51;94111.59;;;7.78;72.71
6389;BME280;3227;42.654;23.360;2024-02-23T01:21:18;94109.56;;;7.13;74.45
6389;BME280;3227;42.654;23.360;2024-02-23T01:23:45;94121.53;;;7.26;75.20
6389;BME280;3227;42.654;23.360;2024-02-23T01:26:11;94103.81;;;7.50;74.55
6389;BME280;3227;42.654;23.360;2024-02-23T01:28:40;94113.22;;;7.67;73.97
6389;BME280;3227;42.654;23.360;2024-02-23T01:31:08;94113.25;;;7.70;73.84
6389;BME280;3227;42.654;23.360;2024-02-23T01:33:36;94108.97;;;7.62;73.70
6389;BME280;3227;42.654;23.360;2024-02-23T01:36:04;94109.03;;;7.76;73.84
6389;BME280;3227;42.654;23.360;2024-02-23T01:38:30;94002.63;;;7.30;73.23
6389;BME280;3227;42.654;23.360;2024-02-23T01:40:58;94034.19;;;7.67;73.04
6389;BME280;3227;42.654;23.360;2024-02-23T01:43:24;94093.78;;;8.00;72.83
6389;BME280;3227;42.654;23.360;2024-02-23T01:45:53;94071.66;;;7.86;71.91
6389;BME280;3227;42.654;23.360;2024-02-23T01:48:20;94102.28;;;7.99;72.24
6389;BME280;3227;42.654;23.360;2024-02-23T01:50:47;94096.34;;;8.02;72.43
6389;BME280;3227;42.654;23.360;2024-02-23T01:53:14;94089.56;;;8.04;71.92
6389;BME280;3227;42.654;23.360;2024-02-23T01:55:41;94085.25;;;7.91;72.18
6389;BME280;3227;42.654;23.360;2024-02-23T01:58:08;94091.25;;;7.96;72.36
6389;BME280;3227;42.654;23.360;2024-02-23T02:00:39;94086.16;;;8.08;71.92
6389;BME280;3227;42.654;23.360;2024-02-23T02:03:07;94080.19;;;8.09;71.74
6389;BME280;3227;42.654;23.360;2024-02-23T02:05:35;94074.25;;;8.02;71.92
6389;BME280;3227;42.654;23.360;2024-02-23T02:08:02;94064.78;;;7.62;73.31
6389;BME280;3227;42.654;23.360;2024-02-23T02:10:29;94069.06;;;7.64;73.58
6389;BME280;3227;42.654;23.360;2024-02-23T02:13:01;94063.09;;;7.70;73.32
6389;BME280;3227;42.654;23.360;2024-02-23T02:15:28;94068.16;;;7.59;73.56
6389;BME280;3227;42.654;23.360;2024-02-23T02:17:55;94071.41;;;7.26;74.78
6389;BME280;3227;42.654;23.360;2024-02-23T02:20:24;94074.06;;;7.45;75.09
6389;BME280;3227;42.654;23.360;2024-02-23T02:22:52;94063.94;;;7.64;74.08
6389;BME280;3227;42.654;23.360;2024-02-23T02:25:19;94071.66;;;7.80;73.44
6389;BME280;3227;42.654;23.360;2024-02-23T02:27:45;94043.47;;;7.40;74.08
6389;BME280;3227;42.654;23.360;2024-02-23T02:30:12;94037.56;;;7.55;73.41
6389;BME280;3227;42.654;23.360;2024-02-23T02:32:39;94072.50;;;7.86;73.59
6389;BME280;3227;42.654;23.360;2024-02-23T02:35:07;94036.72;;;7.62;72.68
6389;BME280;3227;42.654;23.360;2024-02-23T02:37:35;94063.09;;;7.62;73.22
6389;BME280;3227;42.654;23.360;2024-02-23T02:40:02;94075.69;;;7.29;75.16
6389;BME280;3227;42.654;23.360;2024-02-23T02:42:30;94082.50;;;7.36;75.98
6389;BME280;3227;42.654;23.360;2024-02-23T02:44:57;94080.91;;;7.61;74.79
6389;BME280;3227;42.654;23.360;2024-02-23T02:47:23;94080.94;;;7.64;74.99
6389;BME280;3227;42.654;23.360;2024-02-23T02:49:50;94085.19;;;7.65;74.56
6389;BME280;3227;42.654;23.360;2024-02-23T02:52:17;94086.06;;;7.70;74.42
6389;BME280;3227;42.654;23.360;2024-02-23T02:54:45;94087.78;;;7.73;74.26
6389;BME280;3227;42.654;23.360;2024-02-23T02:57:14;94076.72;;;7.74;73.60
6389;BME280;3227;42.654;23.360;2024-02-23T02:59:40;94080.09;;;7.74;73.82
6389;BME280;3227;42.654;23.360;2024-02-23T03:02:07;94075.84;;;7.70;74.38
6389;BME280;3227;42.654;23.360;2024-02-23T03:04:34;94088.66;;;7.81;74.12
6389;BME280;3227;42.654;23.360;2024-02-23T03:07:01;94070.78;;;7.84;74.07
6389;BME280;3227;42.654;23.360;2024-02-23T03:09:27;94066.47;;;7.57;74.35
6389;BME280;3227;42.654;23.360;2024-02-23T03:11:56;94080.00;;;7.39;75.58
6389;BME280;3227;42.654;23.360;2024-02-23T03:14:22;94077.47;;;7.45;75.38
6389;BME280;3227;42.654;23.360;2024-02-23T03:16:49;94080.91;;;7.53;75.85
6389;BME280;3227;42.654;23.360;2024-02-23T03:19:16;94085.09;;;7.50;75.93
6389;BME280;3227;42.654;23.360;2024-02-23T03:21:47;94093.66;;;7.59;75.06
6389;BME280;3227;42.654;23.360;2024-02-23T03:24:14;94087.75;;;7.70;74.58
6389;BME280;3227;42.654;23.360;2024-02-23T03:26:40;94091.19;;;7.79;74.84
6389;BME280;3227;42.654;23.360;2024-02-23T03:29:09;94088.66;;;7.87;74.02
6389;BME280;3227;42.654;23.360;2024-02-23T03:31:35;94057.13;;;7.60;73.99
6389;BME280;3227;42.654;23.360;2024-02-23T03:34:02;94070.72;;;7.62;74.83
6389;BME280;3227;42.654;23.360;2024-02-23T03:36:29;94086.75;;;7.33;75.90
6389;BME280;3227;42.654;23.360;2024-02-23T03:38:56;94090.16;;;7.38;76.62
6389;BME280;3227;42.654;23.360;2024-02-23T03:41:22;94091.06;;;7.50;76.53
6389;BME280;3227;42.654;23.360;2024-02-23T03:43:49;94073.25;;;7.53;75.89
6389;BME280;3227;42.654;23.360;2024-02-23T03:46:17;94078.28;;;7.40;76.19
6389;BME280;3227;42.654;23.360;2024-02-23T03:48:45;94083.44;;;7.47;76.52
6389;BME280;3227;42.654;23.360;2024-02-23T03:51:12;94091.94;;;7.58;76.09
6389;BME280;3227;42.654;23.360;2024-02-23T03:53:38;94098.72;;;7.52;76.23
6389;BME280;3227;42.654;23.360;2024-02-23T03:56:06;94081.69;;;7.39;76.69
6389;BME280;3227;42.654;23.360;2024-02-23T03:58:32;94099.56;;;7.52;76.41
6389;BME280;3227;42.654;23.360;2024-02-23T04:00:59;94086.88;;;7.63;75.94
6389;BME280;3227;42.654;23.360;2024-02-23T04:03:32;94092.84;;;7.68;75.24
6389;BME280;3227;42.654;23.360;2024-02-23T04:05:59;93853.53;;;6.04;76.17
6389;BME280;3227;42.654;23.360;2024-02-23T04:08:25;94062.16;;;7.39;76.18
6389;BME280;3227;42.654;23.360;2024-02-23T04:10:52;94033.16;;;7.16;76.62
6389;BME280;3227;42.654;23.360;2024-02-23T04:13:34;94091.13;;;7.62;76.05
6389;BME280;3227;42.654;23.360;2024-02-23T04:16:01;94093.69;;;7.69;75.84
6389;BME280;3227;42.654;23.360;2024-02-23T04:18:28;94103.91;;;7.66;75.84
6389;BME280;3227;42.654;23.360;2024-02-23T04:20:56;94092.75;;;7.45;76.29
6389;BME280;3227;42.654;23.360;2024-02-23T04:23:23;94108.03;;;7.45;76.80
6389;BME280;3227;42.654;23.360;2024-02-23T04:25:49;94095.38;;;7.60;75.82
6389;BME280;3227;42.654;23.360;2024-02-23T04:28:17;94077.50;;;7.60;75.98
6389;BME280;3227;42.654;23.360;2024-02-23T04:30:44;94086.78;;;7.43;76.04
6389;BME280;3227;42.654;23.360;2024-02-23T04:33:12;94097.84;;;7.41;76.33
6389;BME280;3227;42.654;23.360;2024-02-23T04:35:39;94089.38;;;7.52;76.50
6389;BME280;3227;42.654;23.360;2024-02-23T04:38:07;94101.31;;;7.59;76.39
6389;BME280;3227;42.654;23.360;2024-02-23T04:40:34;94102.19;;;7.69;75.70
6389;BME280;3227;42.654;23.360;2024-02-23T04:43:00;94103.06;;;7.70;75.25
6389;BME280;3227;42.654;23.360;2024-02-23T04:45:27;93943.84;;;6.75;75.36
6389;BME280;3227;42.654;23.360;2024-02-23T04:47:54;94117.47;;;7.66;75.72
6389;BME280;3227;42.654;23.360;2024-02-23T04:50:21;93973.31;;;6.44;77.67
6389;BME280;3227;42.654;23.360;2024-02-23T04:52:48;93937.66;;;6.35;77.00
6389;BME280;3227;42.654;23.360;2024-02-23T04:55:17;93967.28;;;6.28;77.44
6389;BME280;3227;42.654;23.360;2024-02-23T04:57:43;94103.56;;;7.03;77.86
6389;BME280;3227;42.654;23.360;2024-02-23T05:00:11;94021.03;;;6.72;77.47
6389;BME280;3227;42.654;23.360;2024-02-23T05:02:38;94092.56;;;7.12;77.21
6389;BME280;3227;42.654;23.360;2024-02-23T05:05:05;94097.47;;;6.84;77.88
6389;BME280;3227;42.654;23.360;2024-02-23T05:07:33;93953.38;;;5.87;79.07
6389;BME280;3227;42.654;23.360;2024-02-23T05:10:00;94099.00;;;6.57;79.56
6389;BME280;3227;42.654;23.360;2024-02-23T05:12:28;94097.34;;;6.63;79.73
6389;BME280;3227;42.654;23.360;2024-02-23T05:14:55;93960.28;;;6.01;78.36
6389;BME280;3227;42.654;23.360;2024-02-23T05:17:22;94093.31;;;6.91;78.07
6389;BME280;3227;42.654;23.360;2024-02-23T05:19:48;94124.06;;;7.23;77.41
6389;BME280;3227;42.654;23.360;2024-02-23T05:22:15;94098.16;;;6.58;78.80
6389;BME280;3227;42.654;23.360;2024-02-23T05:24:42;94134.47;;;6.40;80.73
6389;BME280;3227;42.654;23.360;2024-02-23T05:27:10;94131.31;;;6.65;80.29
6389;BME280;3227;42.654;23.360;2024-02-23T05:29:38;94136.59;;;6.94;78.95
6389;BME280;3227;42.654;23.360;2024-02-23T05:32:05;94140.22;;;7.28;78.24
6389;BME280;3227;42.654;23.360;2024-02-23T05:34:32;94136.09;;;7.51;77.01
6389;BME280;3227;42.654;23.360;2024-02-23T05:37:00;94134.53;;;7.79;75.94
6389;BME280;3227;42.654;23.360;2024-02-23T05:39:27;94122.72;;;7.98;74.12
6389;BME280;3227;42.654;23.360;2024-02-23T05:41:54;93990.69;;;7.15;73.29
6389;BME280;3227;42.654;23.360;2024-02-23T05:44:22;94127.00;;;8.07;73.50
6389;BME280;3227;42.654;23.360;2024-02-23T05:46:50;94143.28;;;8.59;72.06
6389;BME280;3227;42.654;23.360;2024-02-23T05:49:17;94133.91;;;8.90;70.81
6389;BME280;3227;42.654;23.360;2024-02-23T05:51:44;94138.19;;;9.10;68.69
6389;BME280;3227;42.654;23.360;2024-02-23T05:54:10;94158.59;;;9.39;67.93
6389;BME280;3227;42.654;23.360;2024-02-23T05:56:37;94156.00;;;9.62;67.76
6389;BME280;3227;42.654;23.360;2024-02-23T05:59:04;94145.72;;;9.77;67.23
6389;BME280;3227;42.654;23.360;2024-02-23T06:01:31;94013.84;;;8.94;65.71
6389;BME280;3227;42.654;23.360;2024-02-23T06:04:00;94161.00;;;9.99;65.16
6389;BME280;3227;42.654;23.360;2024-02-23T06:06:26;94164.38;;;10.13;65.40
6389;BME280;3227;42.654;23.360;2024-02-23T06:08:53;94153.22;;;10.24;65.05
6389;BME280;3227;42.654;23.360;2024-02-23T06:11:20;94155.78;;;10.26;64.09
6389;BME280;3227;42.654;23.360;2024-02-23T06:13:47;94166.00;;;10.35;64.43
6389;BME280;3227;42.654;23.360;2024-02-23T06:16:13;94175.25;;;10.59;63.46
6389;BME280;3227;42.654;23.360;2024-02-23T06:18:41;94048.38;;;9.99;62.77
6389;BME280;3227;42.654;23.360;2024-02-23T06:21:13;94050.84;;;10.20;62.62
6389;BME280;3227;42.654;23.360;2024-02-23T06:23:50;94176.59;;;11.10;61.95
6389;BME280;3227;42.654;23.360;2024-02-23T06:26:17;94180.75;;;11.26;61.40
6389;BME280;3227;42.654;23.360;2024-02-23T06:28:43;94158.53;;;11.25;59.58
6389;BME280;3227;42.654;23.360;2024-02-23T06:31:10;94154.78;;;10.51;61.34
6389;BME280;3227;42.654;23.360;2024-02-23T06:33:37;94180.50;;;10.32;63.51
6389;BME280;3227;42.654;23.360;2024-02-23T06:36:04;93833.50;;;8.42;62.40
6389;BME280;3227;42.654;23.360;2024-02-23T06:38:32;94173.31;;;10.93;62.03
6389;BME280;3227;42.654;23.360;2024-02-23T06:40:59;94174.78;;;11.23;60.00
6389;BME280;3227;42.654;23.360;2024-02-23T06:43:26;94175.66;;;11.20;59.82
6389;BME280;3227;42.654;23.360;2024-02-23T06:45:53;94160.50;;;10.93;59.93
6389;BME280;3227;42.654;23.360;2024-02-23T06:48:20;94069.22;;;10.75;59.01
6389;BME280;3227;42.654;23.360;2024-02-23T06:50:46;93915.91;;;10.33;64.62
6389;BME280;3227;42.654;23.360;2024-02-23T06:53:13;94160.81;;;12.34;61.44
6389;BME280;3227;42.654;23.360;2024-02-23T06:55:41;94174.94;;;12.68;58.77
6389;BME280;3227;42.654;23.360;2024-02-23T06:58:08;94190.78;;;12.96;57.58
6389;BME280;3227;42.654;23.360;2024-02-23T07:00:35;94034.47;;;12.04;56.16
6389;BME280;3227;42.654;23.360;2024-02-23T07:03:02;94183.34;;;12.78;54.05
6389;BME280;3227;42.654;23.360;2024-02-23T07:05:29;94172.78;;;12.35;54.64
6389;BME280;3227;42.654;23.360;2024-02-23T07:07:56;94189.19;;;11.37;57.65
6389;BME280;3227;42.654;23.360;2024-02-23T07:10:23;94187.69;;;12.05;62.74
6389;BME280;3227;42.654;23.360;2024-02-23T07:12:52;94187.06;;;12.57;55.82
6389;BME280;3227;42.654;23.360;2024-02-23T07:15:21;94191.38;;;12.52;55.38
6389;BME280;3227;42.654;23.360;2024-02-23T07:17:48;94175.22;;;12.44;54.10
6389;BME280;3227;42.654;23.360;2024-02-23T07:20:14;94177.22;;;12.24;54.19
6389;BME280;3227;42.654;23.360;2024-02-23T07:22:43;94171.84;;;11.62;56.54
6389;BME280;3227;42.654;23.360;2024-02-23T07:25:10;94104.25;;;10.75;58.46
6389;BME280;3227;42.654;23.360;2024-02-23T07:27:37;94177.28;;;11.30;59.82
6389;BME280;3227;42.654;23.360;2024-02-23T07:30:09;94173.47;;;11.77;57.89
6389;BME280;3227;42.654;23.360;2024-02-23T07:32:36;94154.81;;;11.54;57.75
6389;BME280;3227;42.654;23.360;2024-02-23T07:35:04;94162.47;;;11.60;57.90
6389;BME280;3227;42.654;23.360;2024-02-23T07:37:31;94167.78;;;11.40;59.40
6389;BME280;3227;42.654;23.360;2024-02-23T07:39:57;94164.34;;;11.42;59.27
6389;BME280;3227;42.654;23.360;2024-02-23T07:42:24;94166.84;;;10.31;63.84
6389;BME280;3227;42.654;23.360;2024-02-23T07:44:51;94181.47;;;10.02;67.01
6389;BME280;3227;42.654;23.360;2024-02-23T07:47:19;94167.56;;;10.59;65.21
6389;BME280;3227;42.654;23.360;2024-02-23T07:49:46;94172.53;;;10.85;63.96
6389;BME280;3227;42.654;23.360;2024-02-23T07:52:12;94177.47;;;11.04;63.54
6389;BME280;3227;42.654;23.360;2024-02-23T07:54:54;94102.19;;;11.16;62.93
6389;BME280;3227;42.654;23.360;2024-02-23T07:57:21;94170.56;;;12.06;60.96
6389;BME280;3227;42.654;23.360;2024-02-23T07:59:48;94172.28;;;12.05;60.75
6389;BME280;3227;42.654;23.360;2024-02-23T08:02:15;94166.34;;;11.10;64.38
6389;BME280;3227;42.654;23.360;2024-02-23T08:04:43;94158.84;;;10.84;66.06
6389;BME280;3227;42.654;23.360;2024-02-23T08:07:10;94147.94;;;10.55;66.89
6389;BME280;3227;42.654;23.360;2024-02-23T08:09:37;94163.94;;;10.87;66.55
6389;BME280;3227;42.654;23.360;2024-02-23T08:12:04;94178.06;;;11.38;65.18
6389;BME280;3227;42.654;23.360;2024-02-23T08:14:41;94159.09;;;11.55;63.31
6389;BME280;3227;42.654;23.360;2024-02-23T08:17:10;94156.03;;;11.18;65.32
6389;BME280;3227;42.654;23.360;2024-02-23T08:19:36;94155.44;;;10.81;67.39
6389;BME280;3227;42.654;23.360;2024-02-23T08:22:05;94152.81;;;10.90;67.35
6389;BME280;3227;42.654;23.360;2024-02-23T08:24:31;94140.78;;;11.02;66.43
6389;BME280;3227;42.654;23.360;2024-02-23T08:26:58;94084.59;;;10.77;66.25
6389;BME280;3227;42.654;23.360;2024-02-23T08:29:25;94167.41;;;10.82;66.97
6389;BME280;3227;42.654;23.360;2024-02-23T08:31:52;94158.06;;;10.72;68.46
6389;BME280;3227;42.654;23.360;2024-02-23T08:34:19;94158.06;;;10.72;68.46
6389;BME280;3227;42.654;23.360;2024-02-23T08:36:45;94159.78;;;10.71;68.59
6389;BME280;3227;42.654;23.360;2024-02-23T08:39:13;94156.25;;;10.90;68.58
6389;BME280;3227;42.654;23.360;2024-02-23T08:41:40;94156.91;;;11.12;67.61
6389;BME280;3227;42.654;23.360;2024-02-23T08:44:07;94165.34;;;11.26;67.74
6389;BME280;3227;42.654;23.360;2024-02-23T08:46:34;94032.59;;;10.62;65.94
6389;BME280;3227;42.654;23.360;2024-02-23T08:49:00;94149.47;;;11.78;64.56
6389;BME280;3227;42.654;23.360;2024-02-23T08:51:27;94161.41;;;11.82;64.33
6389;BME280;3227;42.654;23.360;2024-02-23T08:53:54;94158.66;;;12.00;62.92
6389;BME280;3227;42.654;23.360;2024-02-23T08:56:23;94158.69;;;11.94;62.56
6389;BME280;3227;42.654;23.360;2024-02-23T08:58:50;94170.66;;;11.98;61.97
6389;BME280;3227;42.654;23.360;2024-02-23T09:01:17;94169.06;;;11.87;62.74
6389;BME280;3227;42.654;23.360;2024-02-23T09:03:44;94161.00;;;12.18;61.71
6389;BME280;3227;42.654;23.360;2024-02-23T09:06:11;94160.72;;;12.40;60.84
6389;BME280;3227;42.654;23.360;2024-02-23T09:08:38;94155.69;;;12.34;60.52
6389;BME280;3227;42.654;23.360;2024-02-23T09:11:06;94150.47;;;12.37;58.91
6389;BME280;3227;42.654;23.360;2024-02-23T09:13:49;94164.06;;;12.45;59.40
6389;BME280;3227;42.654;23.360;2024-02-23T09:16:16;94169.19;;;12.46;59.08
6389;BME280;3227;42.654;23.360;2024-02-23T09:18:44;94162.34;;;12.45;59.04
6389;BME280;3227;42.654;23.360;2024-02-23T09:21:11;94075.31;;;12.23;58.18
6389;BME280;3227;42.654;23.360;2024-02-23T09:23:37;94165.31;;;12.79;58.09
6389;BME280;3227;42.654;23.360;2024-02-23T09:26:08;94160.41;;;12.64;57.25
6389;BME280;3227;42.654;23.360;2024-02-23T09:28:36;94162.09;;;12.65;57.26
6389;BME280;3227;42.654;23.360;2024-02-23T09:31:04;94163.69;;;12.74;57.32
6389;BME280;3227;42.654;23.360;2024-02-23T09:33:31;94167.66;;;12.94;56.60
6389;BME280;3227;42.654;23.360;2024-02-23T09:35:58;94157.63;;;12.78;56.45
6389;BME280;3227;42.654;23.360;2024-02-23T09:38:24;94165.88;;;13.00;54.75
6389;BME280;3227;42.654;23.360;2024-02-23T09:40:51;94005.16;;;12.19;54.60
6389;BME280;3227;42.654;23.360;2024-02-23T09:43:19;94157.78;;;13.25;53.63
6389;BME280;3227;42.654;23.360;2024-02-23T09:45:50;94172.97;;;13.41;51.97
6389;BME280;3227;42.654;23.360;2024-02-23T09:48:19;94152.66;;;13.24;52.04
6389;BME280;3227;42.654;23.360;2024-02-23T09:50:47;94086.44;;;12.83;52.64
6389;BME280;3227;42.654;23.360;2024-02-23T09:53:14;94156.72;;;13.39;52.06
6389;BME280;3227;42.654;23.360;2024-02-23T09:55:43;94018.94;;;12.69;52.52
6389;BME280;3227;42.654;23.360;2024-02-23T09:58:11;94146.94;;;13.57;51.96
6389;BME280;3227;42.654;23.360;2024-02-23T10:00:39;94155.84;;;13.38;52.31
6389;BME280;3227;42.654;23.360;2024-02-23T10:03:06;94147.31;;;13.34;51.59
6389;BME280;3227;42.654;23.360;2024-02-23T10:05:34;94123.13;;;13.46;51.94
6389;BME280;3227;42.654;23.360;2024-02-23T10:08:01;94138.25;;;13.63;51.22
6389;BME280;3227;42.654;23.360;2024-02-23T10:10:29;94144.13;;;13.71;51.05
6389;BME280;3227;42.654;23.360;2024-02-23T10:12:57;94138.94;;;13.74;50.88
6389;BME280;3227;42.654;23.360;2024-02-23T10:15:24;94126.13;;;14.14;50.52
6389;BME280;3227;42.654;23.360;2024-02-23T10:17:51;94121.69;;;14.21;48.71
6389;BME280;3227;42.654;23.360;2024-02-23T10:20:19;94128.91;;;14.46;47.35
6389;BME280;3227;42.654;23.360;2024-02-23T10:22:47;94124.69;;;14.42;47.77
6389;BME280;3227;42.654;23.360;2024-02-23T10:25:14;94122.75;;;14.52;47.25
6389;BME280;3227;42.654;23.360;2024-02-23T10:27:41;94118.94;;;14.70;48.42
6389;BME280;3227;42.654;23.360;2024-02-23T10:30:09;94127.00;;;14.93;47.43
6389;BME280;3227;42.654;23.360;2024-02-23T10:32:38;94113.50;;;15.17;46.36
6389;BME280;3227;42.654;23.360;2024-02-23T10:35:10;94108.19;;;15.23;45.70
6389;BME280;3227;42.654;23.360;2024-02-23T10:37:36;94124.41;;;15.30;45.93
6389;BME280;3227;42.654;23.360;2024-02-23T10:40:07;94104.03;;;15.52;44.23
6389;BME280;3227;42.654;23.360;2024-02-23T10:42:38;94061.03;;;15.18;44.32
6389;BME280;3227;42.654;23.360;2024-02-23T10:45:06;93995.38;;;14.96;43.82
6389;BME280;3227;42.654;23.360;2024-02-23T10:47:34;94090.59;;;15.73;43.55
6389;BME280;3227;42.654;23.360;2024-02-23T10:50:02;94087.69;;;15.85;42.80
6389;BME280;3227;42.654;23.360;2024-02-23T10:52:30;94097.22;;;15.83;43.27
6389;BME280;3227;42.654;23.360;2024-02-23T10:55:00;94084.06;;;15.91;42.14
6389;BME280;3227;42.654;23.360;2024-02-23T10:57:31;94054.75;;;15.29;43.06
6389;BME280;3227;42.654;23.360;2024-02-23T10:59:58;94081.13;;;15.40;43.95
6389;BME280;3227;42.654;23.360;2024-02-23T11:02:27;94061.19;;;15.45;43.22
6389;BME280;3227;42.654;23.360;2024-02-23T11:04:57;94068.63;;;15.57;42.47
6389;BME280;3227;42.654;23.360;2024-02-23T11:07:24;94063.56;;;15.54;42.12
6389;BME280;3227;42.654;23.360;2024-02-23T11:09:53;93935.78;;;14.73;41.58
6389;BME280;3227;42.654;23.360;2024-02-23T11:12:24;93928.28;;;14.64;41.35
6389;BME280;3227;42.654;23.360;2024-02-23T11:14:56;93991.50;;;15.12;41.71
6389;BME280;3227;42.654;23.360;2024-02-23T11:17:26;94045.00;;;15.40;41.20
6389;BME280;3227;42.654;23.360;2024-02-23T11:19:54;94047.84;;;15.63;41.27
6389;BME280;3227;42.654;23.360;2024-02-23T11:22:25;94056.00;;;15.79;40.07
6389;BME280;3227;42.654;23.360;2024-02-23T11:24:52;94053.31;;;15.82;40.67
6389;BME280;3227;42.654;23.360;2024-02-23T11:27:24;94045.63;;;16.11;40.13
6389;BME280;3227;42.654;23.360;2024-02-23T11:30:02;94047.56;;;16.32;40.04
6389;BME280;3227;42.654;23.360;2024-02-23T11:32:37;94042.69;;;16.51;39.86
6389;BME280;3227;42.654;23.360;2024-02-23T11:35:06;94056.16;;;16.33;39.58
6389;BME280;3227;42.654;23.360;2024-02-23T11:37:33;94040.81;;;15.34;41.97
6389;BME280;3227;42.654;23.360;2024-02-23T11:40:11;94040.97;;;15.62;41.52
6389;BME280;3227;42.654;23.360;2024-02-23T11:42:40;94039.44;;;15.86;41.28
6389;BME280;3227;42.654;23.360;2024-02-23T11:45:09;93997.84;;;15.95;40.06
6389;BME280;3227;42.654;23.360;2024-02-23T11:47:37;94033.63;;;16.38;39.26
6389;BME280;3227;42.654;23.360;2024-02-23T11:50:04;94016.56;;;16.31;39.12
6389;BME280;3227;42.654;23.360;2024-02-23T11:52:33;94043.63;;;16.21;39.65
6389;BME280;3227;42.654;23.360;2024-02-23T11:54:59;94028.25;;;16.15;39.44
6389;BME280;3227;42.654;23.360;2024-02-23T11:57:26;94034.34;;;16.14;39.16
6389;BME280;3227;42.654;23.360;2024-02-23T11:59:54;94020.81;;;15.75;38.75
6389;BME280;3227;42.654;23.360;2024-02-23T12:02:23;94024.28;;;15.74;39.10
6389;BME280;3227;42.654;23.360;2024-02-23T12:04:50;94020.00;;;16.04;39.72
6389;BME280;3227;42.654;23.360;2024-02-23T12:07:17;94027.63;;;16.07;39.12
6389;BME280;3227;42.654;23.360;2024-02-23T12:09:46;93989.31;;;15.62;39.65
6389;BME280;3227;42.654;23.360;2024-02-23T12:12:13;94012.00;;;15.82;39.75
6389;BME280;3227;42.654;23.360;2024-02-23T12:14:40;94000.47;;;15.64;39.54
6389;BME280;3227;42.654;23.360;2024-02-23T12:17:08;94016.47;;;15.77;40.55
6389;BME280;3227;42.654;23.360;2024-02-23T12:19:38;94018.00;;;15.82;39.72
6389;BME280;3227;42.654;23.360;2024-02-23T12:22:06;94013.50;;;15.59;40.29
6389;BME280;3227;42.654;23.360;2024-02-23T12:24:34;94001.66;;;15.51;39.64
6389;BME280;3227;42.654;23.360;2024-02-23T12:27:00;93991.59;;;15.40;39.42
6389;BME280;3227;42.654;23.360;2024-02-23T12:29:27;93997.56;;;15.42;39.08
6389;BME280;3227;42.654;23.360;2024-02-23T12:32:04;93977.94;;;15.37;39.32
6389;BME280;3227;42.654;23.360;2024-02-23T12:34:31;94005.00;;;15.56;37.82
6389;BME280;3227;42.654;23.360;2024-02-23T12:36:59;93897.97;;;15.04;37.83
6389;BME280;3227;42.654;23.360;2024-02-23T12:39:25;93989.06;;;15.71;37.47
6389;BME280;3227;42.654;23.360;2024-02-23T12:41:53;93921.34;;;15.31;37.91
6389;BME280;3227;42.654;23.360;2024-02-23T12:44:22;93983.50;;;15.55;38.54
6389;BME280;3227;42.654;23.360;2024-02-23T12:46:49;93970.88;;;15.43;37.81
6389;BME280;3227;42.654;23.360;2024-02-23T12:49:15;93971.69;;;15.45;37.95
6389;BME280;3227;42.654;23.360;2024-02-23T12:51:42;93963.91;;;15.47;38.14
6389;BME280;3227;42.654;23.360;2024-02-23T12:54:12;93964.22;;;15.35;38.20
6389;BME280;3227;42.654;23.360;2024-02-23T12:56:38;93954.78;;;15.34;38.08
6389;BME280;3227;42.654;23.360;2024-02-23T12:59:05;93972.44;;;15.49;37.93
6389;BME280;3227;42.654;23.360;2024-02-23T13:01:32;93972.56;;;15.44;37.76
6389;BME280;3227;42.654;23.360;2024-02-23T13:04:07;93974.97;;;15.50;38.20
6389;BME280;3227;42.654;23.360;2024-02-23T13:06:37;93980.75;;;15.60;38.09
6389;BME280;3227;42.654;23.360;2024-02-23T13:09:04;93978.88;;;15.65;39.12
6389;BME280;3227;42.654;23.360;2024-02-23T13:11:32;93983.81;;;15.74;39.43
6389;BME280;3227;42.654;23.360;2024-02-23T13:13:59;93979.16;;;15.87;39.51
6389;BME280;3227;42.654;23.360;2024-02-23T13:16:25;93956.09;;;15.81;39.00